Map

Track Data

SID SEASON NUMBER BASIN SUBBASIN NAME ISO_TIME NATURE LAT LON WMO_WIND WMO_PRES WMO_AGENCY TRACK_TYPE DIST2LAND LANDFALL IFLAG USA_AGENCY USA_ATCF_ID USA_LAT USA_LON USA_RECORD USA_STATUS USA_WIND USA_PRES USA_SSHS USA_R34_NE USA_R34_SE USA_R34_SW USA_R34_NW USA_R50_NE USA_R50_SE USA_R50_SW USA_R50_NW USA_R64_NE USA_R64_SE USA_R64_SW USA_R64_NW USA_POCI USA_ROCI USA_RMW USA_EYE TOKYO_LAT TOKYO_LON TOKYO_GRADE TOKYO_WIND TOKYO_PRES TOKYO_R50_DIR TOKYO_R50_LONG TOKYO_R50_SHORT TOKYO_R30_DIR TOKYO_R30_LONG TOKYO_R30_SHORT TOKYO_LAND CMA_LAT CMA_LON CMA_CAT CMA_WIND CMA_PRES HKO_LAT HKO_LON HKO_CAT HKO_WIND HKO_PRES NEWDELHI_LAT NEWDELHI_LON NEWDELHI_GRADE NEWDELHI_WIND NEWDELHI_PRES NEWDELHI_CI NEWDELHI_DP NEWDELHI_POCI REUNION_LAT REUNION_LON REUNION_TYPE REUNION_WIND REUNION_PRES REUNION_TNUM REUNION_CI REUNION_RMW REUNION_R34_NE REUNION_R34_SE REUNION_R34_SW REUNION_R34_NW REUNION_R50_NE REUNION_R50_SE REUNION_R50_SW REUNION_R50_NW REUNION_R64_NE REUNION_R64_SE REUNION_R64_SW REUNION_R64_NW BOM_LAT BOM_LON BOM_TYPE BOM_WIND BOM_PRES BOM_TNUM BOM_CI BOM_RMW BOM_R34_NE BOM_R34_SE BOM_R34_SW BOM_R34_NW BOM_R50_NE BOM_R50_SE BOM_R50_SW BOM_R50_NW BOM_R64_NE BOM_R64_SE BOM_R64_SW BOM_R64_NW BOM_ROCI BOM_POCI BOM_EYE BOM_POS_METHOD BOM_PRES_METHOD NADI_LAT NADI_LON NADI_CAT NADI_WIND NADI_PRES WELLINGTON_LAT WELLINGTON_LON WELLINGTON_WIND WELLINGTON_PRES DS824_LAT DS824_LON DS824_STAGE DS824_WIND DS824_PRES TD9636_LAT TD9636_LON TD9636_STAGE TD9636_WIND TD9636_PRES TD9635_LAT TD9635_LON TD9635_WIND TD9635_PRES TD9635_ROCI NEUMANN_LAT NEUMANN_LON NEUMANN_CLASS NEUMANN_WIND NEUMANN_PRES MLC_LAT MLC_LON MLC_CLASS MLC_WIND MLC_PRES USA_GUST BOM_GUST BOM_GUST_PER REUNION_GUST REUNION_GUST_PER USA_SEAHGT USA_SEARAD_NE USA_SEARAD_SE USA_SEARAD_SW USA_SEARAD_NW STORM_SPEED STORM_DIR
1902343S09065 1903 54 SI MM NOT_NAMED 1902-12-09 00:00:00 TS -9.40000 64.5000 main 1402 1391 _________O____ -1 -9.40000 64.5000 TC 5 261
1902343S09065 1903 54 SI MM NOT_NAMED 1902-12-09 03:00:00 TS -9.44005 64.2400 main 1386 1365 _________P____ -1 -9.44005 64.2400 TC 5 259
1902343S09065 1903 54 SI MM NOT_NAMED 1902-12-09 06:00:00 TS -9.50000 64.0000 main 1365 1345 _________O____ -1 -9.50000 64.0000 TC 5 251
1902343S09065 1903 54 SI MM NOT_NAMED 1902-12-09 09:00:00 TS -9.59247 63.7925 main 1345 1325 _________P____ -1 -9.59247 63.7925 TC 4 243
1902343S09065 1903 54 SI MM NOT_NAMED 1902-12-09 12:00:00 TS -9.70000 63.6000 main 1325 1305 _________O____ -1 -9.70000 63.6000 TC 4 241
1902343S09065 1903 54 SI MM NOT_NAMED 1902-12-09 15:00:00 TS -9.79997 63.4075 main 1305 1285 _________P____ -1 -9.79997 63.4075 TC 4 243
1902343S09065 1903 54 SI MM NOT_NAMED 1902-12-09 18:00:00 TS -9.90000 63.2000 main 1285 1265 _________O____ -1 -9.90000 63.2000 TC 5 246
1902343S09065 1903 54 SI MM NOT_NAMED 1902-12-09 21:00:00 TS -10.0000 62.9575 main 1265 1241 _________P____ -1 -10.0000 62.9575 TC 5 248
1902343S09065 1903 54 SI MM NOT_NAMED 1902-12-10 00:00:00 TS -10.1000 62.7000 main 1241 1221 _________O____ -1 -10.1000 62.7000 TC 5 247
1902343S09065 1903 54 SI MM NOT_NAMED 1902-12-10 03:00:00 TS -10.2075 62.4575 main 1221 1198 _________P____ -1 -10.2075 62.4575 TC 5 248
1902343S09065 1903 54 SI MM NOT_NAMED 1902-12-10 06:00:00 TS -10.3000 62.2000 main 1198 1185 _________O____ -1 -10.3000 62.2000 TC 6 255
1902343S09065 1903 54 SI MM NOT_NAMED 1902-12-10 09:00:00 TS -10.3500 61.9075 main 1185 1163 _________P____ -1 -10.3500 61.9075 TC 6 260
1902343S09065 1903 54 SI MM NOT_NAMED 1902-12-10 12:00:00 TS -10.4000 61.6000 main 1163 1141 _________O____ -1 -10.4000 61.6000 TC 6 257
1902343S09065 1903 54 SI MM NOT_NAMED 1902-12-10 15:00:00 TS -10.4925 61.2925 main 1141 1120 _________P____ -1 -10.4925 61.2925 TC 6 251
1902343S09065 1903 54 SI MM NOT_NAMED 1902-12-10 18:00:00 TS -10.6000 61.0000 main 1120 1103 _________O____ -1 -10.6000 61.0000 TC 6 249
1902343S09065 1903 54 SI MM NOT_NAMED 1902-12-10 21:00:00 TS -10.6924 60.7499 main 1100 1083 _________P____ -1 -10.6924 60.7499 TC 5 248
1902343S09065 1903 54 SI MM NOT_NAMED 1902-12-11 00:00:00 TS -10.8000 60.5000 main 1083 1063 _________O____ -1 -10.8000 60.5000 TC 6 244
1902343S09065 1903 54 SI MM NOT_NAMED 1902-12-11 03:00:00 TS -10.9500 60.2075 main 1063 1034 _________P____ -1 -10.9500 60.2075 TC 7 243
1902343S09065 1903 54 SI MM NOT_NAMED 1902-12-11 06:00:00 TS -11.1000 59.9000 main 1034 1016 _________O____ -1 -11.1000 59.9000 TC 6 247
1902343S09065 1903 54 SI MM NOT_NAMED 1902-12-11 09:00:00 TS -11.1999 59.6149 main 1016 999 _________P____ -1 -11.1999 59.6149 TC 6 251
1902343S09065 1903 54 SI MM NOT_NAMED 1902-12-11 12:00:00 TS -11.3000 59.3000 main 999 982 _________O____ -1 -11.3000 59.3000 TC 7 250
1902343S09065 1903 54 SI MM NOT_NAMED 1902-12-11 15:00:00 TS -11.4500 58.9150 main 971 944 _________P____ -1 -11.4500 58.9150 TC 8 249
1902343S09065 1903 54 SI MM NOT_NAMED 1902-12-11 18:00:00 TS -11.6000 58.5000 main 944 899 _________O____ -1 -11.6000 58.5000 TC 8 253
1902343S09065 1903 54 SI MM NOT_NAMED 1902-12-11 21:00:00 TS -11.7000 58.0924 main 899 854 _________P____ -1 -11.7000 58.0924 TC 8 256
1902343S09065 1903 54 SI MM NOT_NAMED 1902-12-12 00:00:00 TS -11.8000 57.7000 main 854 819 _________O____ -1 -11.8000 57.7000 TC 8 251
1902343S09065 1903 54 SI MM NOT_NAMED 1902-12-12 03:00:00 TS -11.9499 57.3425 main 809 771 _________P____ -1 -11.9499 57.3425 TC 7 246
1902343S09065 1903 54 SI MM NOT_NAMED 1902-12-12 06:00:00 TS -12.1000 57.0000 main 771 737 _________O____ -1 -12.1000 57.0000 TC 7 249
1902343S09065 1903 54 SI MM NOT_NAMED 1902-12-12 09:00:00 TS -12.2074 56.6574 main 737 692 _________P____ -1 -12.2074 56.6574 TC 7 254
1902343S09065 1903 54 SI MM NOT_NAMED 1902-12-12 12:00:00 TS -12.3000 56.3000 main 692 647 _________O____ -1 -12.3000 56.3000 TC 8 256
1902343S09065 1903 54 SI MM NOT_NAMED 1902-12-12 15:00:00 TS -12.3925 55.9074 main 647 602 _________P____ -1 -12.3925 55.9074 TC 8 256
1902343S09065 1903 54 SI MM NOT_NAMED 1902-12-12 18:00:00 TS -12.5000 55.5000 main 602 558 _________O____ -1 -12.5000 55.5000 TC 8 252
1902343S09065 1903 54 SI MM NOT_NAMED 1902-12-12 21:00:00 TS -12.6500 55.0850 main 558 510 _________P____ -1 -12.6500 55.0850 TC 8 249
1902343S09065 1903 54 SI MM NOT_NAMED 1902-12-13 00:00:00 TS -12.8000 54.7000 main 510 476 _________O____ -1 -12.8000 54.7000 TC 7 250
1902343S09065 1903 54 SI MM NOT_NAMED 1902-12-13 03:00:00 TS -12.9074 54.3774 main 476 442 _________P____ -1 -12.9074 54.3774 TC 6 251
1902343S09065 1903 54 SI MM NOT_NAMED 1902-12-13 06:00:00 TS -13.0000 54.1000 main 442 418 _________O____ -1 -13.0000 54.1000 TC 5 249
1902343S09065 1903 54 SI MM NOT_NAMED 1902-12-13 09:00:00 TS -13.0999 53.8500 main 407 384 _________P____ -1 -13.0999 53.8500 TC 5 248
1902343S09065 1903 54 SI MM NOT_NAMED 1902-12-13 12:00:00 TS -13.2000 53.6000 main 384 350 _________O____ -1 -13.2000 53.6000 TC 6 249
1902343S09065 1903 54 SI MM NOT_NAMED 1902-12-13 15:00:00 TS -13.3000 53.3075 main 350 316 _________P____ -1 -13.3000 53.3075 TC 6 251
1902343S09065 1903 54 SI MM NOT_NAMED 1902-12-13 18:00:00 TS -13.4000 53.0000 main 316 283 _________O____ -1 -13.4000 53.0000 TC 6 251
1902343S09065 1903 54 SI MM NOT_NAMED 1902-12-13 21:00:00 TS -13.5075 52.6850 main 283 249 _________P____ -1 -13.5075 52.6850 TC 6 251
1902343S09065 1903 54 SI MM NOT_NAMED 1902-12-14 00:00:00 TS -13.6000 52.4000 main 249 228 _________O____ -1 -13.6000 52.4000 TC 5 254
1902343S09065 1903 54 SI MM NOT_NAMED 1902-12-14 03:00:00 TS -13.6500 52.1774 main 228 205 _________P____ -1 -13.6500 52.1774 TC 4 256
1902343S09065 1903 54 SI MM NOT_NAMED 1902-12-14 06:00:00 TS -13.7000 52.0000 main 205 194 _________O____ -1 -13.7000 52.0000 TC 3 246
1902343S09065 1903 54 SI MM NOT_NAMED 1902-12-14 09:00:00 TS -13.7925 51.8500 main 194 172 _________P____ -1 -13.7925 51.8500 TC 4 236
1902343S09065 1903 54 SI MM NOT_NAMED 1902-12-14 12:00:00 TS -13.9000 51.7000 main 172 151 _________O____ -1 -13.9000 51.7000 TC 4 239
1902343S09065 1903 54 SI MM NOT_NAMED 1902-12-14 15:00:00 TS -14.0000 51.5000 main 151 129 _________P____ -1 -14.0000 51.5000 TC 4 243
1902343S09065 1903 54 SI MM NOT_NAMED 1902-12-14 18:00:00 TS -14.1000 51.3000 main 129 116 _________O____ -1 -14.1000 51.3000 TC 4 239
1902343S09065 1903 54 SI MM NOT_NAMED 1902-12-14 21:00:00 TS -14.1849 51.1799 main 116 92 _________P____ -1 -14.1849 51.1799 TC 4 236
1902343S09065 1903 54 SI MM NOT_NAMED 1902-12-15 00:00:00 TS -14.3000 51.0000 main 92 54 _________O____ -1 -14.3000 51.0000 TC 6 239
1902343S09065 1903 54 SI MM NOT_NAMED 1902-12-15 03:00:00 TS -14.4925 50.6451 main 44 0 _________P____ -1 -14.4925 50.6451 TC 9 243
1902343S09065 1903 54 SI MM NOT_NAMED 1902-12-15 06:00:00 TS -14.7000 50.2000 main 0 0 _________O____ -1 -14.7000 50.2000 TC 9 249
1902343S09065 1903 54 SI MM NOT_NAMED 1902-12-15 09:00:00 TS -14.8350 49.7423 main 0 0 _________P____ -1 -14.8350 49.7423 TC 9 251
1902343S09065 1903 54 SI MM NOT_NAMED 1902-12-15 12:00:00 TS -15.0000 49.3000 main 0 0 _________O____ -1 -15.0000 49.3000 TC 9 241
1902343S09065 1903 54 SI MM NOT_NAMED 1902-12-15 15:00:00 TS -15.2699 48.9200 main 0 0 _________P____ -1 -15.2699 48.9200 TC 9 228
1902343S09065 1903 54 SI MM NOT_NAMED 1902-12-15 18:00:00 TS -15.6000 48.6000 main 0 0 _________O____ -1 -15.6000 48.6000 TC 8 220
1902343S09065 1903 54 SI MM NOT_NAMED 1902-12-15 21:00:00 TS -15.9123 48.3571 main 0 0 _________P____ -1 -15.9123 48.3571 TC 9 215
1902343S09065 1903 54 SI MM NOT_NAMED 1902-12-16 00:00:00 TS -16.3000 48.1000 main 0 0 _________O____ -1 -16.3000 48.1000 TC 11 214
1902343S09065 1903 54 SI MM NOT_NAMED 1902-12-16 03:00:00 TS -16.8201 47.7151 main 0 0 _________P____ -1 -16.8201 47.7151 TC 13 215
1902343S09065 1903 54 SI MM NOT_NAMED 1902-12-16 06:00:00 TS -17.4000 47.3000 main 0 0 _________O____ -1 -17.4000 47.3000 TC 13 215
1902343S09065 1903 54 SI MM NOT_NAMED 1902-12-16 09:00:00 TS -17.9125 46.9124 main 0 0 _________P____ -1 -17.9125 46.9124 TC 13 211
1902343S09065 1903 54 SI MM NOT_NAMED 1902-12-16 12:00:00 TS -18.5000 46.6000 main 0 0 _________O____ -1 -18.5000 46.6000 TC 15 201
1902343S09065 1903 54 SI MM NOT_NAMED 1902-12-16 15:00:00 TS -19.2624 46.3753 main 0 0 _________P____ -1 -19.2624 46.3753 TC 16 190
1902343S09065 1903 54 SI MM NOT_NAMED 1902-12-16 18:00:00 TS -20.1000 46.3000 main 0 0 _________O____ -1 -20.1000 46.3000 TC 17 180
1902343S09065 1903 54 SI MM NOT_NAMED 1902-12-16 21:00:00 TS -20.9600 46.4043 main 0 0 _________P____ -1 -20.9600 46.4043 TC 16 170
1902343S09065 1903 54 SI MM NOT_NAMED 1902-12-17 00:00:00 TS -21.7000 46.6000 main 0 0 _________O____ -1 -21.7000 46.6000 TC 13 165
1902343S09065 1903 54 SI MM NOT_NAMED 1902-12-17 03:00:00 TS -22.1674 46.7428 main 0 0 _________P____ -1 -22.1674 46.7428 TC 9 161
1902343S09065 1903 54 SI MM NOT_NAMED 1902-12-17 06:00:00 TS -22.5000 46.9000 main 0 0 _________O____ -1 -22.5000 46.9000 TC 8 155
1902343S09065 1903 54 SI MM NOT_NAMED 1902-12-17 09:00:00 TS -22.8575 47.0926 main 0 0 _________P____ -1 -22.8575 47.0926 TC 8 152
1902343S09065 1903 54 SI MM NOT_NAMED 1902-12-17 12:00:00 TS -23.2000 47.3000 main 0 0 _________O____ -1 -23.2000 47.3000 TC 8 152
1902343S09065 1903 54 SI MM NOT_NAMED 1902-12-17 15:00:00 TS -23.5575 47.5001 main 0 0 _________P____ -1 -23.5575 47.5001 TC 8 152
1902343S09065 1903 54 SI MM NOT_NAMED 1902-12-17 18:00:00 TS -23.9000 47.7000 main 20 20 _________O____ -1 -23.9000 47.7000 TC 8 151
1902343S09065 1903 54 SI MM NOT_NAMED 1902-12-17 21:00:00 TS -24.2101 47.8998 main 46 46 _________P____ -1 -24.2101 47.8998 TC 7 149
1902343S09065 1903 54 SI MM NOT_NAMED 1902-12-18 00:00:00 TS -24.5000 48.1000 main 78 _________O____ -1 -24.5000 48.1000 TC 7 148

About IBTrACS Database

This database is a web-friendly format of International Best Track Archive for Climate Stewardship (IBTrACS), a global best track data archive curated by NOAA dating back to 1842.

Updated: 2021-10-08